Current Weather

Austin-Bergstrom Intl

Austin, Texas (KAUS)

Report from: Friday, February 3, 2023 9:53 PM CST
Current time: Friday, February 3, 2023 10:46 PM CST

Nearby weather
Weather history
Weather forecast

Temperature7.8°C (46.0°F)
Dew point5.6°C (42.1°F)
Winds Calm
Visibility10 mi. (16.1 km)
Clouds Ceiling: Overcast 1,500 ft. (457 m)
Altimeter30.50 in.Hg (1033 mB)
Relative humidity86 %
Density altitude-1,394 ft. (-425 m)
Sea-level pressure103.3 kPa (1033 mB, 30.51 in.Hg)
Remarks Automated weather observing station with precipitation discriminator
Flight conditions Marginal Visual Meteorological Conditions
Raw dataKAUS 040353Z 00000KT 10SM OVC015 08/06 A3050 RMK AO2 SLP331 T00780056
An unhandled exception has occurred. See browser dev tools for details. Reload 🗙